createdAt,value
2024-02-24T00:00:34.824Z,1.00
2024-02-24T00:03:01.972Z,0.00
2024-02-24T00:05:29.125Z,1.00
2024-02-24T00:07:56.676Z,0.60
2024-02-24T00:10:24.089Z,0.00
2024-02-24T00:12:51.198Z,1.00
2024-02-24T00:15:18.462Z,1.00
2024-02-24T00:17:45.838Z,1.00
2024-02-24T00:20:13.330Z,1.00
2024-02-24T00:22:40.756Z,0.80
2024-02-24T00:25:08.117Z,1.00
2024-02-24T00:27:35.248Z,2.00
2024-02-24T00:30:03.137Z,1.00
2024-02-24T00:32:30.424Z,2.00
2024-02-24T00:34:57.827Z,2.00
2024-02-24T00:37:25.045Z,1.00
2024-02-24T00:39:53.032Z,1.00
2024-02-24T00:42:20.460Z,2.00
2024-02-24T00:44:47.765Z,2.00
2024-02-24T00:47:14.915Z,1.40
2024-02-24T00:49:42.221Z,2.00
2024-02-24T00:52:09.601Z,4.00
2024-02-24T00:54:36.747Z,0.60
2024-02-24T00:57:04.661Z,2.00
2024-02-24T00:59:32.132Z,4.00
2024-02-24T01:01:59.323Z,5.00
2024-02-24T01:04:26.826Z,2.00
2024-02-24T01:06:54.285Z,2.00
2024-02-24T01:09:22.104Z,4.00
2024-02-24T01:11:49.557Z,2.40
2024-02-24T01:14:17.158Z,2.00
2024-02-24T01:16:45.876Z,2.00
2024-02-24T01:19:13.417Z,1.20
2024-02-24T01:21:44.361Z,4.00
2024-02-24T01:24:12.557Z,2.00
2024-02-24T01:26:39.770Z,1.40
2024-02-24T01:29:07.148Z,1.20
2024-02-24T01:31:34.407Z,1.20
2024-02-24T01:34:01.761Z,1.80
2024-02-24T01:36:29.172Z,1.80
2024-02-24T01:38:56.442Z,1.00
2024-02-24T01:41:23.759Z,2.40
2024-02-24T01:43:51.015Z,1.00
2024-02-24T01:46:18.322Z,0.40
2024-02-24T01:48:45.713Z,1.40
2024-02-24T01:51:14.728Z,1.00
2024-02-24T01:53:43.478Z,1.00
2024-02-24T01:56:11.333Z,1.00
2024-02-24T01:58:39.522Z,0.60
2024-02-24T02:01:09.988Z,1.00
2024-02-24T02:03:37.595Z,1.00
2024-02-24T02:06:05.636Z,1.00
2024-02-24T02:08:33.336Z,0.80
2024-02-24T02:11:00.622Z,0.00
2024-02-24T02:13:28.098Z,0.20
2024-02-24T02:15:58.125Z,1.00
2024-02-24T02:18:25.617Z,1.00
2024-02-24T02:20:53.808Z,1.00
2024-02-24T02:23:21.493Z,1.00
2024-02-24T02:25:48.911Z,2.00
2024-02-24T02:28:16.462Z,1.00
2024-02-24T02:30:43.872Z,1.00
2024-02-24T02:33:11.172Z,0.80
2024-02-24T02:35:38.801Z,1.00
2024-02-24T02:38:09.634Z,1.00
2024-02-24T02:40:37.460Z,1.00
2024-02-24T02:43:04.789Z,1.00
2024-02-24T02:45:32.005Z,1.00
2024-02-24T02:47:59.185Z,1.00
2024-02-24T02:50:26.588Z,1.00
2024-02-24T02:52:53.864Z,1.00
2024-02-24T02:55:22.235Z,0.80
2024-02-24T02:57:50.469Z,1.00
2024-02-24T03:00:18.324Z,1.00
2024-02-24T03:02:45.606Z,0.00
2024-02-24T03:05:13.221Z,1.00
2024-02-24T03:07:40.334Z,0.80
2024-02-24T03:10:08.584Z,1.00
2024-02-24T03:12:35.943Z,1.20
2024-02-24T03:15:04.060Z,1.40
2024-02-24T03:17:31.329Z,3.60
2024-02-24T03:19:58.782Z,1.20
2024-02-24T03:22:28.756Z,1.80
2024-02-24T03:24:56.114Z,1.00
2024-02-24T03:27:23.280Z,0.00
2024-02-24T03:29:50.431Z,0.80
2024-02-24T03:32:17.745Z,0.40
2024-02-24T03:34:44.972Z,1.00
2024-02-24T03:37:12.303Z,1.00
2024-02-24T03:39:39.576Z,1.00
2024-02-24T03:42:06.808Z,0.00
2024-02-24T03:44:34.023Z,0.60
2024-02-24T03:47:01.268Z,0.80
2024-02-24T03:49:28.901Z,1.00
2024-02-24T03:51:56.299Z,1.00
2024-02-24T03:54:24.297Z,0.00
2024-02-24T03:56:52.224Z,1.00
2024-02-24T03:59:19.480Z,0.00
2024-02-24T04:01:46.873Z,0.60
2024-02-24T04:04:15.128Z,0.00
2024-02-24T04:06:45.439Z,1.40
2024-02-24T04:09:12.901Z,1.00
2024-02-24T04:11:40.828Z,0.80
2024-02-24T04:14:08.490Z,1.40
2024-02-24T04:16:35.604Z,1.20
2024-02-24T04:19:03.229Z,1.00
2024-02-24T04:21:30.412Z,1.00
2024-02-24T04:23:57.931Z,1.00
2024-02-24T04:26:25.587Z,1.60
2024-02-24T04:28:52.806Z,2.20
2024-02-24T04:31:20.031Z,1.00
2024-02-24T04:33:47.602Z,0.20
2024-02-24T04:36:14.982Z,0.80
2024-02-24T04:38:42.443Z,1.20
2024-02-24T04:41:09.870Z,2.20
2024-02-24T04:43:37.427Z,1.00
2024-02-24T04:46:05.516Z,2.00
2024-02-24T04:48:33.348Z,1.00
2024-02-24T04:51:03.150Z,0.20
2024-02-24T04:53:30.977Z,1.00
2024-02-24T04:55:58.371Z,1.80
2024-02-24T04:58:26.300Z,1.00
2024-02-24T05:00:53.911Z,1.00
2024-02-24T05:03:21.368Z,0.60
2024-02-24T05:05:48.649Z,0.60
2024-02-24T05:08:16.135Z,1.00
2024-02-24T05:10:43.929Z,1.00
2024-02-24T05:13:11.162Z,1.00
2024-02-24T05:15:38.486Z,3.20
2024-02-24T05:18:06.184Z,2.40
2024-02-24T05:20:33.570Z,1.00
2024-02-24T05:23:02.558Z,1.20
2024-02-24T05:25:32.045Z,1.00
2024-02-24T05:27:59.873Z,4.00
2024-02-24T05:30:27.092Z,1.80
2024-02-24T05:32:58.585Z,0.20
2024-02-24T05:35:27.157Z,2.20
2024-02-24T05:37:54.375Z,1.80
2024-02-24T05:40:21.801Z,4.00
2024-02-24T05:42:49.129Z,3.20
2024-02-24T05:45:17.865Z,1.00
2024-02-24T05:47:45.300Z,1.00
2024-02-24T05:50:12.984Z,2.80
2024-02-24T05:52:40.210Z,1.80
2024-02-24T05:55:11.026Z,4.40
2024-02-24T05:57:38.835Z,5.00
2024-02-24T06:00:07.090Z,1.00
2024-02-24T06:02:39.479Z,5.00
2024-02-24T06:05:07.324Z,5.00
2024-02-24T06:07:34.996Z,4.60
2024-02-24T06:10:02.538Z,0.00
2024-02-24T06:12:29.815Z,1.00
2024-02-24T06:14:57.176Z,5.00
2024-02-24T06:17:24.494Z,0.00
2024-02-24T06:19:51.839Z,2.00
2024-02-24T06:22:19.116Z,3.00
2024-02-24T06:24:46.409Z,2.00
2024-02-24T06:27:13.925Z,0.00
2024-02-24T06:29:43.207Z,2.00
2024-02-24T06:32:10.497Z,5.00
2024-02-24T06:34:47.003Z,2.60
2024-02-24T06:37:14.623Z,2.60
2024-02-24T06:39:41.884Z,4.00
2024-02-24T06:42:09.201Z,3.80
2024-02-24T06:44:36.472Z,2.00
2024-02-24T06:47:14.143Z,0.00
2024-02-24T06:49:49.183Z,3.40
2024-02-24T06:52:16.479Z,3.00
2024-02-24T06:54:43.883Z,6.80
2024-02-24T06:57:11.158Z,5.40
2024-02-24T06:59:38.416Z,17.00
2024-02-24T07:02:05.821Z,12.00
2024-02-24T07:04:34.348Z,7.80
2024-02-24T07:07:01.591Z,5.20
2024-02-24T07:09:29.051Z,5.00
2024-02-24T07:11:57.183Z,3.60
2024-02-24T07:14:24.593Z,3.00
2024-02-24T07:16:51.715Z,3.00
2024-02-24T07:19:18.978Z,2.00
2024-02-24T07:21:46.084Z,1.20
2024-02-24T07:24:14.531Z,3.00
2024-02-24T07:26:45.998Z,4.00
2024-02-24T07:29:15.350Z,3.40
2024-02-24T07:31:42.995Z,3.00
2024-02-24T07:34:10.543Z,3.00
2024-02-24T07:36:38.067Z,3.00
2024-02-24T07:39:06.418Z,3.80
2024-02-24T07:41:33.860Z,7.20
2024-02-24T07:44:01.033Z,4.00
2024-02-24T07:46:31.339Z,3.00
2024-02-24T07:48:59.875Z,16.00
2024-02-24T07:51:27.988Z,9.20
2024-02-24T07:53:55.838Z,5.40
2024-02-24T07:56:23.866Z,4.40
2024-02-24T07:58:52.141Z,4.80
2024-02-24T08:01:19.353Z,4.00
2024-02-24T08:03:47.053Z,3.80
2024-02-24T08:06:14.223Z,3.00
2024-02-24T08:08:41.866Z,3.00
2024-02-24T08:11:09.438Z,2.20
2024-02-24T08:13:43.370Z,3.00
2024-02-24T08:16:11.042Z,2.00
2024-02-24T08:18:38.374Z,3.80
2024-02-24T08:21:08.164Z,2.60
2024-02-24T08:23:36.382Z,3.00
2024-02-24T08:26:04.155Z,2.00
2024-02-24T08:28:31.640Z,4.00
2024-02-24T08:31:01.339Z,4.00
2024-02-24T08:33:29.023Z,3.60
2024-02-24T08:35:56.753Z,3.20
2024-02-24T08:38:24.374Z,2.80
2024-02-24T08:40:51.749Z,3.60
2024-02-24T08:43:18.994Z,2.60
2024-02-24T08:45:46.396Z,0.00
2024-02-24T08:48:14.334Z,4.40
2024-02-24T08:50:41.937Z,4.00
2024-02-24T08:53:09.568Z,3.40
2024-02-24T08:55:37.100Z,2.80
2024-02-24T08:58:04.902Z,4.00
2024-02-24T09:00:32.893Z,3.00
2024-02-24T09:03:00.235Z,3.00
2024-02-24T09:05:27.727Z,5.00
2024-02-24T09:07:55.255Z,4.00
2024-02-24T09:10:22.603Z,1.00
2024-02-24T09:12:50.103Z,1.20
2024-02-24T09:15:17.496Z,4.00
2024-02-24T09:17:45.091Z,3.00
2024-02-24T09:20:13.124Z,3.00
2024-02-24T09:22:42.815Z,5.00
2024-02-24T09:25:19.311Z,5.00
2024-02-24T09:27:50.172Z,3.00
2024-02-24T09:30:17.471Z,3.20
2024-02-24T09:32:45.160Z,4.00
2024-02-24T09:35:12.839Z,4.40
2024-02-24T09:37:40.154Z,3.00
2024-02-24T09:40:08.210Z,2.00
2024-02-24T09:42:35.754Z,2.40
2024-02-24T09:45:06.389Z,2.80
2024-02-24T09:47:33.993Z,3.00
2024-02-24T09:50:02.289Z,3.00
2024-02-24T09:52:32.580Z,4.00
2024-02-24T09:55:00.038Z,4.00
2024-02-24T09:57:31.763Z,2.60
2024-02-24T09:59:59.410Z,2.40
2024-02-24T10:02:28.177Z,3.00
2024-02-24T10:04:56.143Z,2.80
2024-02-24T10:07:23.977Z,3.40
2024-02-24T10:09:51.458Z,3.60
2024-02-24T10:12:18.797Z,3.80
2024-02-24T10:14:46.219Z,4.00
2024-02-24T10:17:13.467Z,0.00
2024-02-24T10:19:41.169Z,3.00
2024-02-24T10:22:08.672Z,6.00
2024-02-24T10:24:36.295Z,4.00
2024-02-24T10:27:04.298Z,3.80
2024-02-24T10:29:32.365Z,3.00
2024-02-24T10:32:00.058Z,7.00
2024-02-24T10:34:28.968Z,4.20
2024-02-24T10:37:00.500Z,3.00
2024-02-24T10:39:28.344Z,4.40
2024-02-24T10:41:55.890Z,3.00
2024-02-24T10:44:24.054Z,4.60
2024-02-24T10:46:51.849Z,3.00
2024-02-24T10:49:19.568Z,4.00
2024-02-24T10:51:51.079Z,2.20
2024-02-24T10:54:23.395Z,2.00
2024-02-24T10:57:01.679Z,2.00
2024-02-24T10:59:33.087Z,3.20
2024-02-24T11:02:12.640Z,2.00
2024-02-24T11:04:41.811Z,2.00
2024-02-24T11:07:17.413Z,3.00
2024-02-24T11:09:48.739Z,2.00
2024-02-24T11:12:16.497Z,2.80
2024-02-24T11:14:45.794Z,2.00
2024-02-24T11:17:13.785Z,2.40
2024-02-24T11:19:44.024Z,4.20
2024-02-24T11:22:19.358Z,3.00
2024-02-24T11:24:47.542Z,4.00
2024-02-24T11:27:14.976Z,3.60
2024-02-24T11:29:42.389Z,3.00
2024-02-24T11:32:16.054Z,1.00
2024-02-24T11:34:45.553Z,2.20
2024-02-24T11:37:17.378Z,1.00
2024-02-24T11:39:46.177Z,2.00
2024-02-24T11:42:13.762Z,2.80
2024-02-24T11:44:46.263Z,4.00
2024-02-24T11:47:18.657Z,2.20
2024-02-24T11:49:50.639Z,2.00
2024-02-24T11:52:18.511Z,2.00
2024-02-24T11:54:46.829Z,1.80
2024-02-24T11:57:15.007Z,5.00
2024-02-24T11:59:42.546Z,3.20
2024-02-24T12:02:10.183Z,2.00
2024-02-24T12:04:37.499Z,1.40
2024-02-24T12:07:06.418Z,3.20
2024-02-24T12:09:33.853Z,2.00
2024-02-24T12:12:02.728Z,2.60
2024-02-24T12:14:32.998Z,1.20
2024-02-24T12:17:00.870Z,2.00
2024-02-24T12:19:29.814Z,2.40
2024-02-24T12:21:57.214Z,3.00
2024-02-24T12:24:31.175Z,2.00
2024-02-24T12:27:05.079Z,2.00
2024-02-24T12:29:32.736Z,2.00
2024-02-24T12:32:00.181Z,3.00
2024-02-24T12:34:27.899Z,4.00
2024-02-24T12:36:57.378Z,2.00
2024-02-24T12:39:27.728Z,2.00
2024-02-24T12:41:55.174Z,1.60
2024-02-24T12:44:23.210Z,2.00
2024-02-24T12:46:51.219Z,2.00
2024-02-24T12:49:18.915Z,1.00
2024-02-24T12:51:55.787Z,1.00
2024-02-24T12:54:23.243Z,1.00
2024-02-24T12:56:50.738Z,1.00
2024-02-24T12:59:20.321Z,2.00
2024-02-24T13:01:47.619Z,1.20
2024-02-24T13:04:15.551Z,1.00
2024-02-24T13:06:43.571Z,0.80
2024-02-24T13:09:11.232Z,0.40
2024-02-24T13:11:38.902Z,2.00
2024-02-24T13:14:06.388Z,1.00
2024-02-24T13:16:33.861Z,1.00
2024-02-24T13:19:01.489Z,0.60
2024-02-24T13:21:29.077Z,1.80
2024-02-24T13:23:56.399Z,1.00
2024-02-24T13:26:23.571Z,1.00
2024-02-24T13:28:50.980Z,1.40
2024-02-24T13:31:23.119Z,1.00
2024-02-24T13:33:58.268Z,1.00
2024-02-24T13:36:26.482Z,2.20
2024-02-24T13:38:54.939Z,2.00
2024-02-24T13:41:23.033Z,1.20
2024-02-24T13:43:50.381Z,3.00
2024-02-24T13:46:18.549Z,2.00
2024-02-24T13:48:46.878Z,2.00
2024-02-24T13:51:14.407Z,3.00
2024-02-24T13:53:41.793Z,2.00
2024-02-24T13:56:09.500Z,2.00
2024-02-24T13:58:38.722Z,2.00
2024-02-24T14:01:06.117Z,2.00
2024-02-24T14:03:33.334Z,1.00
2024-02-24T14:06:00.782Z,1.20
2024-02-24T14:08:28.460Z,2.00
2024-02-24T14:10:56.363Z,2.00
2024-02-24T14:13:23.755Z,2.00
2024-02-24T14:15:52.042Z,2.00
2024-02-24T14:18:19.552Z,3.80
2024-02-24T14:20:46.937Z,3.00
2024-02-24T14:23:14.289Z,3.00
2024-02-24T14:25:44.491Z,3.00
2024-02-24T14:28:12.271Z,2.00
2024-02-24T14:30:40.106Z,2.00
2024-02-24T14:33:08.331Z,1.00
2024-02-24T14:35:39.778Z,1.00
2024-02-24T14:38:07.516Z,1.80
2024-02-24T14:40:35.284Z,2.00
2024-02-24T14:43:02.827Z,3.00
2024-02-24T14:45:31.772Z,1.00
2024-02-24T14:48:01.541Z,2.00
2024-02-24T14:50:30.515Z,2.00
2024-02-24T14:52:57.816Z,3.40
2024-02-24T14:55:25.274Z,2.00
2024-02-24T14:57:52.724Z,2.60
2024-02-24T15:00:20.429Z,2.20
2024-02-24T15:02:58.298Z,4.00
2024-02-24T15:05:32.044Z,3.00
2024-02-24T15:07:59.436Z,2.40
2024-02-24T15:10:26.892Z,3.20
2024-02-24T15:12:54.337Z,2.80
2024-02-24T15:15:21.686Z,2.00
2024-02-24T15:17:49.613Z,3.80
2024-02-24T15:20:17.138Z,3.00
2024-02-24T15:22:44.641Z,2.00
2024-02-24T15:25:12.085Z,2.60
2024-02-24T15:27:39.409Z,2.00
2024-02-24T15:30:07.606Z,2.00
2024-02-24T15:32:35.254Z,2.00
2024-02-24T15:35:02.616Z,2.20
2024-02-24T15:37:29.995Z,1.00
2024-02-24T15:39:57.298Z,3.00
2024-02-24T15:42:24.460Z,1.80
2024-02-24T15:44:51.845Z,1.00
2024-02-24T15:47:19.479Z,2.00
2024-02-24T15:49:47.080Z,1.20
2024-02-24T15:52:15.994Z,2.00
2024-02-24T15:54:43.246Z,2.00
2024-02-24T15:57:10.389Z,1.40
2024-02-24T15:59:37.805Z,0.60
2024-02-24T16:02:05.441Z,1.60
2024-02-24T16:04:34.172Z,1.00
2024-02-24T16:07:02.074Z,2.00
2024-02-24T16:09:31.180Z,1.40
2024-02-24T16:11:58.384Z,2.20
2024-02-24T16:14:25.803Z,2.00
2024-02-24T16:16:53.210Z,1.00
2024-02-24T16:19:20.908Z,2.00
2024-02-24T16:21:49.007Z,1.00
2024-02-24T16:24:16.469Z,0.20
2024-02-24T16:26:43.677Z,1.00
2024-02-24T16:29:11.220Z,0.60
2024-02-24T16:31:38.730Z,0.00
2024-02-24T16:34:06.493Z,1.20
2024-02-24T16:36:35.534Z,0.00
2024-02-24T16:39:05.900Z,0.40
2024-02-24T16:41:33.447Z,2.00
2024-02-24T16:44:00.654Z,1.40
2024-02-24T16:46:28.908Z,0.00
2024-02-24T16:48:56.225Z,1.00
2024-02-24T16:51:23.653Z,0.20
2024-02-24T16:53:51.049Z,0.60
2024-02-24T16:56:18.485Z,1.00
2024-02-24T16:58:46.077Z,1.00
2024-02-24T17:01:13.486Z,1.00
2024-02-24T17:03:41.225Z,0.40
2024-02-24T17:06:08.582Z,1.00
2024-02-24T17:08:35.783Z,0.00
2024-02-24T17:11:03.345Z,1.00
2024-02-24T17:13:31.057Z,1.00
2024-02-24T17:15:58.215Z,0.80
2024-02-24T17:18:31.435Z,1.00
2024-02-24T17:21:04.143Z,1.00
2024-02-24T17:23:31.479Z,2.00
2024-02-24T17:26:00.216Z,1.00
2024-02-24T17:28:27.773Z,1.00
2024-02-24T17:30:57.998Z,1.00
2024-02-24T17:33:25.453Z,1.80
2024-02-24T17:35:53.011Z,1.00
2024-02-24T17:38:23.545Z,1.20
2024-02-24T17:40:50.734Z,1.60
2024-02-24T17:43:18.149Z,1.00
2024-02-24T17:45:45.367Z,0.80
2024-02-24T17:48:12.847Z,2.00
2024-02-24T17:50:40.389Z,2.40
2024-02-24T17:53:07.647Z,4.20
2024-02-24T17:55:35.705Z,2.20
2024-02-24T17:58:04.480Z,4.20
2024-02-24T18:00:32.142Z,7.20
2024-02-24T18:02:59.425Z,6.40
2024-02-24T18:05:26.978Z,11.40
2024-02-24T18:07:54.655Z,9.40
2024-02-24T18:10:21.971Z,1.00
2024-02-24T18:12:49.500Z,7.20
2024-02-24T18:15:17.062Z,2.00
2024-02-24T18:17:44.446Z,6.20
2024-02-24T18:20:12.828Z,11.00
2024-02-24T18:22:43.884Z,10.40
2024-02-24T18:25:12.357Z,8.60
2024-02-24T18:27:39.596Z,7.40
2024-02-24T18:30:07.620Z,6.80
2024-02-24T18:32:35.105Z,6.60
2024-02-24T18:35:02.378Z,10.40
2024-02-24T18:37:29.827Z,13.80
2024-02-24T18:39:58.444Z,11.00
2024-02-24T18:42:26.190Z,9.80
2024-02-24T18:44:53.496Z,10.00
2024-02-24T18:47:21.259Z,10.60
2024-02-24T18:49:49.026Z,10.20
2024-02-24T18:52:16.437Z,11.00
2024-02-24T18:54:46.831Z,9.20
2024-02-24T18:57:14.847Z,3.00
2024-02-24T18:59:43.586Z,4.20
2024-02-24T19:02:13.995Z,3.00
2024-02-24T19:04:41.603Z,2.00
2024-02-24T19:07:12.468Z,2.40
2024-02-24T19:09:42.571Z,2.00
2024-02-24T19:12:10.300Z,1.80
2024-02-24T19:14:48.161Z,1.00
2024-02-24T19:17:20.262Z,1.00
2024-02-24T19:19:50.551Z,1.00
2024-02-24T19:22:18.024Z,2.00
2024-02-24T19:24:45.606Z,2.00
2024-02-24T19:27:12.808Z,2.00
2024-02-24T19:29:45.354Z,0.00
2024-02-24T19:32:13.570Z,2.00
2024-02-24T19:34:41.312Z,1.00
2024-02-24T19:37:11.547Z,0.00
2024-02-24T19:39:39.398Z,3.80
2024-02-24T19:42:06.841Z,7.00
2024-02-24T19:44:35.652Z,13.20
2024-02-24T19:47:10.347Z,9.00
2024-02-24T19:49:38.262Z,6.00
2024-02-24T19:52:06.186Z,0.40
2024-02-24T19:54:33.627Z,15.60
2024-02-24T19:57:00.849Z,11.60
2024-02-24T19:59:28.620Z,10.20
2024-02-24T20:01:56.123Z,9.20
2024-02-24T20:04:23.521Z,7.40
2024-02-24T20:06:51.210Z,3.40
2024-02-24T20:09:18.658Z,7.00
2024-02-24T20:11:46.137Z,15.80
2024-02-24T20:14:13.631Z,7.40
2024-02-24T20:16:40.873Z,7.00
2024-02-24T20:19:08.790Z,7.00
2024-02-24T20:21:36.161Z,5.60
2024-02-24T20:24:04.110Z,3.00
2024-02-24T20:26:31.404Z,2.00
2024-02-24T20:28:59.325Z,2.00
2024-02-24T20:31:26.630Z,2.40
2024-02-24T20:34:00.393Z,2.00
2024-02-24T20:36:34.493Z,1.20
2024-02-24T20:39:01.770Z,1.40
2024-02-24T20:41:30.570Z,0.60
2024-02-24T20:43:59.272Z,1.00
2024-02-24T20:46:26.577Z,0.00
2024-02-24T20:48:53.991Z,1.00
2024-02-24T20:51:21.486Z,1.00
2024-02-24T20:53:48.644Z,1.00
2024-02-24T20:56:15.934Z,2.00
2024-02-24T20:58:43.303Z,1.00
2024-02-24T21:01:10.816Z,2.00
2024-02-24T21:03:38.097Z,3.00
2024-02-24T21:06:06.781Z,3.00
2024-02-24T21:08:36.140Z,4.60
2024-02-24T21:11:05.214Z,5.40
2024-02-24T21:13:32.588Z,6.00
2024-02-24T21:15:59.844Z,5.00
2024-02-24T21:18:27.229Z,4.20
2024-02-24T21:20:54.662Z,3.40
2024-02-24T21:23:21.991Z,7.00
2024-02-24T21:25:49.288Z,5.60
2024-02-24T21:28:18.368Z,6.00
2024-02-24T21:30:45.962Z,4.20
2024-02-24T21:33:13.680Z,1.60
2024-02-24T21:35:41.933Z,5.80
2024-02-24T21:38:09.168Z,6.00
2024-02-24T21:40:36.342Z,5.00
2024-02-24T21:43:06.174Z,4.80
2024-02-24T21:45:33.470Z,5.60
2024-02-24T21:48:01.165Z,5.00
2024-02-24T21:50:28.593Z,3.20
2024-02-24T21:52:55.952Z,5.20
2024-02-24T21:55:23.446Z,2.40
2024-02-24T21:57:50.889Z,4.80
2024-02-24T22:00:20.422Z,4.40
2024-02-24T22:02:52.340Z,2.00
2024-02-24T22:05:19.799Z,2.60
2024-02-24T22:07:47.316Z,3.20
2024-02-24T22:10:14.935Z,3.20
2024-02-24T22:12:43.069Z,2.60
2024-02-24T22:15:14.167Z,3.80
2024-02-24T22:17:42.864Z,5.00
2024-02-24T22:20:11.174Z,1.40
2024-02-24T22:22:38.519Z,3.20
2024-02-24T22:25:06.242Z,4.40
2024-02-24T22:27:33.932Z,5.00
2024-02-24T22:30:08.833Z,4.20
2024-02-24T22:32:43.723Z,2.80
2024-02-24T22:35:11.250Z,3.20
2024-02-24T22:37:38.734Z,2.60
2024-02-24T22:40:06.615Z,0.00
2024-02-24T22:42:34.959Z,2.20
2024-02-24T22:45:03.396Z,6.00
2024-02-24T22:47:30.986Z,5.00
2024-02-24T22:49:58.388Z,4.80
2024-02-24T22:52:25.627Z,4.60
2024-02-24T22:54:53.068Z,4.00
2024-02-24T22:57:21.945Z,3.40
2024-02-24T22:59:49.271Z,2.00
2024-02-24T23:02:16.556Z,3.20
2024-02-24T23:04:43.699Z,2.00
2024-02-24T23:07:10.883Z,2.00
2024-02-24T23:09:38.381Z,0.20
2024-02-24T23:12:06.201Z,1.80
2024-02-24T23:14:33.760Z,1.80
2024-02-24T23:17:00.873Z,3.60
2024-02-24T23:19:28.194Z,4.60
2024-02-24T23:21:55.466Z,4.40
2024-02-24T23:24:22.933Z,4.80
2024-02-24T23:26:50.124Z,4.60
2024-02-24T23:29:18.931Z,4.80
2024-02-24T23:31:46.241Z,4.00
2024-02-24T23:34:13.635Z,4.40
2024-02-24T23:36:41.503Z,4.60
2024-02-24T23:39:09.912Z,5.60
2024-02-24T23:41:37.064Z,6.00
2024-02-24T23:44:04.936Z,5.60
2024-02-24T23:46:32.114Z,10.00
2024-02-24T23:48:59.514Z,8.80
2024-02-24T23:51:27.229Z,2.00
2024-02-24T23:53:54.918Z,5.00
2024-02-24T23:56:23.481Z,4.00
2024-02-24T23:58:51.592Z,6.00
